sensor_id;sensor_type;location;lat;lon;timestamp;temperature;humidity
72772;SHT30;60894;42.544;1.516;2023-09-19T00:02:22;13.90;72.85
72772;SHT30;60894;42.544;1.516;2023-09-19T00:04:48;13.89;73.04
72772;SHT30;60894;42.544;1.516;2023-09-19T00:07:15;13.86;72.95
72772;SHT30;60894;42.544;1.516;2023-09-19T00:09:42;13.86;73.02
72772;SHT30;60894;42.544;1.516;2023-09-19T00:12:09;13.87;72.54
72772;SHT30;60894;42.544;1.516;2023-09-19T00:14:39;13.86;72.72
72772;SHT30;60894;42.544;1.516;2023-09-19T00:17:07;13.91;72.55
72772;SHT30;60894;42.544;1.516;2023-09-19T00:19:34;13.85;72.44
72772;SHT30;60894;42.544;1.516;2023-09-19T00:22:01;13.69;72.47
72772;SHT30;60894;42.544;1.516;2023-09-19T00:24:28;13.75;72.77
72772;SHT30;60894;42.544;1.516;2023-09-19T00:26:55;13.66;72.71
72772;SHT30;60894;42.544;1.516;2023-09-19T00:29:25;13.61;72.71
72772;SHT30;60894;42.544;1.516;2023-09-19T00:31:55;13.62;72.96
72772;SHT30;60894;42.544;1.516;2023-09-19T00:34:24;13.61;73.24
72772;SHT30;60894;42.544;1.516;2023-09-19T00:36:51;13.58;73.06
72772;SHT30;60894;42.544;1.516;2023-09-19T00:39:20;13.70;72.47
72772;SHT30;60894;42.544;1.516;2023-09-19T00:41:47;13.56;72.82
72772;SHT30;60894;42.544;1.516;2023-09-19T00:44:15;13.51;72.68
72772;SHT30;60894;42.544;1.516;2023-09-19T00:46:43;13.39;73.31
72772;SHT30;60894;42.544;1.516;2023-09-19T00:49:13;13.39;73.40
72772;SHT30;60894;42.544;1.516;2023-09-19T00:51:42;13.42;73.43
72772;SHT30;60894;42.544;1.516;2023-09-19T00:54:13;13.36;73.39
72772;SHT30;60894;42.544;1.516;2023-09-19T00:56:44;13.32;73.24
72772;SHT30;60894;42.544;1.516;2023-09-19T00:59:11;13.28;73.69
72772;SHT30;60894;42.544;1.516;2023-09-19T01:01:38;13.29;73.15
72772;SHT30;60894;42.544;1.516;2023-09-19T01:04:06;13.15;73.70
72772;SHT30;60894;42.544;1.516;2023-09-19T01:06:33;13.21;73.44
72772;SHT30;60894;42.544;1.516;2023-09-19T01:09:03;13.10;73.83
72772;SHT30;60894;42.544;1.516;2023-09-19T01:11:35;12.97;74.27
72772;SHT30;60894;42.544;1.516;2023-09-19T01:14:14;13.07;73.76
72772;SHT30;60894;42.544;1.516;2023-09-19T01:16:50;13.11;73.53
72772;SHT30;60894;42.544;1.516;2023-09-19T01:19:32;12.95;73.89
72772;SHT30;60894;42.544;1.516;2023-09-19T01:22:11;13.03;73.58
72772;SHT30;60894;42.544;1.516;2023-09-19T01:25:13;12.90;73.96
72772;SHT30;60894;42.544;1.516;2023-09-19T01:28:15;12.84;74.09
72772;SHT30;60894;42.544;1.516;2023-09-19T01:30:51;12.77;74.21
72772;SHT30;60894;42.544;1.516;2023-09-19T01:33:23;12.72;74.44
72772;SHT30;60894;42.544;1.516;2023-09-19T01:35:51;12.77;74.02
72772;SHT30;60894;42.544;1.516;2023-09-19T01:38:23;12.64;74.23
72772;SHT30;60894;42.544;1.516;2023-09-19T01:40:57;12.68;74.23
72772;SHT30;60894;42.544;1.516;2023-09-19T01:43:30;12.63;74.47
72772;SHT30;60894;42.544;1.516;2023-09-19T01:46:05;12.57;74.82
72772;SHT30;60894;42.544;1.516;2023-09-19T01:48:38;12.59;74.70
72772;SHT30;60894;42.544;1.516;2023-09-19T01:51:07;12.70;74.09
72772;SHT30;60894;42.544;1.516;2023-09-19T01:53:40;12.73;73.74
72772;SHT30;60894;42.544;1.516;2023-09-19T01:56:23;12.77;73.48
72772;SHT30;60894;42.544;1.516;2023-09-19T01:58:56;12.53;74.52
72772;SHT30;60894;42.544;1.516;2023-09-19T02:01:26;12.63;74.44
72772;SHT30;60894;42.544;1.516;2023-09-19T02:03:53;12.60;74.47
72772;SHT30;60894;42.544;1.516;2023-09-19T02:06:22;12.60;74.29
72772;SHT30;60894;42.544;1.516;2023-09-19T02:08:53;12.72;73.94
72772;SHT30;60894;42.544;1.516;2023-09-19T02:11:21;12.70;73.57
72772;SHT30;60894;42.544;1.516;2023-09-19T02:13:48;12.57;74.04
72772;SHT30;60894;42.544;1.516;2023-09-19T02:16:18;12.52;74.24
72772;SHT30;60894;42.544;1.516;2023-09-19T02:18:47;12.40;74.49
72772;SHT30;60894;42.544;1.516;2023-09-19T02:21:15;12.40;74.38
72772;SHT30;60894;42.544;1.516;2023-09-19T02:23:42;12.33;74.15
72772;SHT30;60894;42.544;1.516;2023-09-19T02:26:10;12.26;74.47
72772;SHT30;60894;42.544;1.516;2023-09-19T02:28:37;12.23;74.76
72772;SHT30;60894;42.544;1.516;2023-09-19T02:31:04;12.21;74.60
72772;SHT30;60894;42.544;1.516;2023-09-19T02:33:32;12.19;74.67
72772;SHT30;60894;42.544;1.516;2023-09-19T02:36:00;12.22;74.79
72772;SHT30;60894;42.544;1.516;2023-09-19T02:38:29;12.18;74.75
72772;SHT30;60894;42.544;1.516;2023-09-19T02:40:56;12.21;74.60
72772;SHT30;60894;42.544;1.516;2023-09-19T02:43:23;12.18;74.83
72772;SHT30;60894;42.544;1.516;2023-09-19T02:45:51;12.21;74.48
72772;SHT30;60894;42.544;1.516;2023-09-19T02:48:19;12.11;74.69
72772;SHT30;60894;42.544;1.516;2023-09-19T02:50:48;12.35;74.29
72772;SHT30;60894;42.544;1.516;2023-09-19T02:53:17;12.35;73.89
72772;SHT30;60894;42.544;1.516;2023-09-19T02:55:44;12.29;74.33
72772;SHT30;60894;42.544;1.516;2023-09-19T02:58:11;12.37;73.59
72772;SHT30;60894;42.544;1.516;2023-09-19T03:00:40;12.26;74.06
72772;SHT30;60894;42.544;1.516;2023-09-19T03:03:08;12.18;74.22
72772;SHT30;60894;42.544;1.516;2023-09-19T03:05:35;12.06;74.68
72772;SHT30;60894;42.544;1.516;2023-09-19T03:08:04;11.99;74.78
72772;SHT30;60894;42.544;1.516;2023-09-19T03:10:33;11.86;75.26
72772;SHT30;60894;42.544;1.516;2023-09-19T03:13:03;11.92;75.19
72772;SHT30;60894;42.544;1.516;2023-09-19T03:15:30;11.94;75.06
72772;SHT30;60894;42.544;1.516;2023-09-19T03:17:57;11.98;74.81
72772;SHT30;60894;42.544;1.516;2023-09-19T03:20:25;12.11;74.56
72772;SHT30;60894;42.544;1.516;2023-09-19T03:22:53;11.95;74.96
72772;SHT30;60894;42.544;1.516;2023-09-19T03:25:20;12.05;74.35
72772;SHT30;60894;42.544;1.516;2023-09-19T03:27:49;11.85;74.88
72772;SHT30;60894;42.544;1.516;2023-09-19T03:30:17;11.84;74.90
72772;SHT30;60894;42.544;1.516;2023-09-19T03:32:44;11.85;75.16
72772;SHT30;60894;42.544;1.516;2023-09-19T03:35:12;11.84;75.20
72772;SHT30;60894;42.544;1.516;2023-09-19T03:37:40;11.85;74.91
72772;SHT30;60894;42.544;1.516;2023-09-19T03:40:08;11.99;74.27
72772;SHT30;60894;42.544;1.516;2023-09-19T03:42:38;11.82;74.90
72772;SHT30;60894;42.544;1.516;2023-09-19T03:45:07;11.86;75.10
72772;SHT30;60894;42.544;1.516;2023-09-19T03:47:37;11.78;74.83
72772;SHT30;60894;42.544;1.516;2023-09-19T03:50:05;11.75;74.73
72772;SHT30;60894;42.544;1.516;2023-09-19T03:52:33;11.73;74.86
72772;SHT30;60894;42.544;1.516;2023-09-19T03:55:00;11.71;74.90
72772;SHT30;60894;42.544;1.516;2023-09-19T03:57:30;11.63;75.21
72772;SHT30;60894;42.544;1.516;2023-09-19T03:59:57;11.55;75.52
72772;SHT30;60894;42.544;1.516;2023-09-19T04:02:25;11.55;75.50
72772;SHT30;60894;42.544;1.516;2023-09-19T04:04:58;11.55;75.43
72772;SHT30;60894;42.544;1.516;2023-09-19T04:07:25;11.51;75.81
72772;SHT30;60894;42.544;1.516;2023-09-19T04:09:54;11.45;75.89
72772;SHT30;60894;42.544;1.516;2023-09-19T04:12:21;11.54;75.88
72772;SHT30;60894;42.544;1.516;2023-09-19T04:14:48;11.41;75.59
72772;SHT30;60894;42.544;1.516;2023-09-19T04:17:15;11.33;76.07
72772;SHT30;60894;42.544;1.516;2023-09-19T04:19:44;11.34;75.92
72772;SHT30;60894;42.544;1.516;2023-09-19T04:22:11;11.47;75.45
72772;SHT30;60894;42.544;1.516;2023-09-19T04:24:38;11.44;75.17
72772;SHT30;60894;42.544;1.516;2023-09-19T04:27:05;11.43;75.65
72772;SHT30;60894;42.544;1.516;2023-09-19T04:29:32;11.38;75.99
72772;SHT30;60894;42.544;1.516;2023-09-19T04:32:00;11.45;75.74
72772;SHT30;60894;42.544;1.516;2023-09-19T04:34:30;11.47;75.66
72772;SHT30;60894;42.544;1.516;2023-09-19T04:36:58;11.28;76.24
72772;SHT30;60894;42.544;1.516;2023-09-19T04:39:26;11.26;76.37
72772;SHT30;60894;42.544;1.516;2023-09-19T04:41:53;11.35;75.92
72772;SHT30;60894;42.544;1.516;2023-09-19T04:44:20;11.45;75.98
72772;SHT30;60894;42.544;1.516;2023-09-19T04:46:47;11.41;76.02
72772;SHT30;60894;42.544;1.516;2023-09-19T04:49:14;11.30;75.96
72772;SHT30;60894;42.544;1.516;2023-09-19T04:51:41;11.23;76.18
72772;SHT30;60894;42.544;1.516;2023-09-19T04:54:09;11.19;76.41
72772;SHT30;60894;42.544;1.516;2023-09-19T04:56:36;11.19;76.27
72772;SHT30;60894;42.544;1.516;2023-09-19T04:59:06;11.06;76.63
72772;SHT30;60894;42.544;1.516;2023-09-19T05:01:33;11.06;76.29
72772;SHT30;60894;42.544;1.516;2023-09-19T05:03:59;11.12;76.38
72772;SHT30;60894;42.544;1.516;2023-09-19T05:06:26;11.20;76.22
72772;SHT30;60894;42.544;1.516;2023-09-19T05:08:53;11.38;75.51
72772;SHT30;60894;42.544;1.516;2023-09-19T05:11:22;11.31;75.70
72772;SHT30;60894;42.544;1.516;2023-09-19T05:13:50;11.20;75.93
72772;SHT30;60894;42.544;1.516;2023-09-19T05:16:18;11.10;76.51
72772;SHT30;60894;42.544;1.516;2023-09-19T05:18:45;11.13;76.11
72772;SHT30;60894;42.544;1.516;2023-09-19T05:21:12;11.13;76.18
72772;SHT30;60894;42.544;1.516;2023-09-19T05:23:39;11.16;76.30
72772;SHT30;60894;42.544;1.516;2023-09-19T05:26:06;11.10;76.43
72772;SHT30;60894;42.544;1.516;2023-09-19T05:28:34;11.06;76.55
72772;SHT30;60894;42.544;1.516;2023-09-19T05:31:02;11.06;76.37
72772;SHT30;60894;42.544;1.516;2023-09-19T05:33:29;10.99;76.72
72772;SHT30;60894;42.544;1.516;2023-09-19T05:35:57;11.04;76.43
72772;SHT30;60894;42.544;1.516;2023-09-19T05:38:24;11.09;76.54
72772;SHT30;60894;42.544;1.516;2023-09-19T05:40:53;11.00;77.01
72772;SHT30;60894;42.544;1.516;2023-09-19T05:43:20;10.93;77.00
72772;SHT30;60894;42.544;1.516;2023-09-19T05:45:48;10.93;76.98
72772;SHT30;60894;42.544;1.516;2023-09-19T05:48:17;10.97;76.98
72772;SHT30;60894;42.544;1.516;2023-09-19T05:50:46;10.93;76.78
72772;SHT30;60894;42.544;1.516;2023-09-19T05:53:14;10.92;76.74
72772;SHT30;60894;42.544;1.516;2023-09-19T05:55:41;10.83;76.64
72772;SHT30;60894;42.544;1.516;2023-09-19T05:58:08;11.03;76.77
72772;SHT30;60894;42.544;1.516;2023-09-19T06:00:39;11.04;76.29
72772;SHT30;60894;42.544;1.516;2023-09-19T06:03:09;11.03;75.99
72772;SHT30;60894;42.544;1.516;2023-09-19T06:05:37;11.03;76.46
72772;SHT30;60894;42.544;1.516;2023-09-19T06:08:07;10.92;76.59
72772;SHT30;60894;42.544;1.516;2023-09-19T06:10:35;10.86;77.02
72772;SHT30;60894;42.544;1.516;2023-09-19T06:13:02;10.89;76.71
72772;SHT30;60894;42.544;1.516;2023-09-19T06:15:30;10.99;76.59
72772;SHT30;60894;42.544;1.516;2023-09-19T06:18:01;10.91;76.79
72772;SHT30;60894;42.544;1.516;2023-09-19T06:20:31;10.95;76.71
72772;SHT30;60894;42.544;1.516;2023-09-19T06:22:58;11.03;76.56
72772;SHT30;60894;42.544;1.516;2023-09-19T06:25:27;11.53;76.98
72772;SHT30;60894;42.544;1.516;2023-09-19T06:27:54;11.82;75.91
72772;SHT30;60894;42.544;1.516;2023-09-19T06:30:22;12.39;76.38
72772;SHT30;60894;42.544;1.516;2023-09-19T06:32:55;13.36;73.86
72772;SHT30;60894;42.544;1.516;2023-09-19T06:35:22;13.52;70.99
72772;SHT30;60894;42.544;1.516;2023-09-19T06:37:53;13.69;70.23
72772;SHT30;60894;42.544;1.516;2023-09-19T06:40:19;13.66;68.72
72772;SHT30;60894;42.544;1.516;2023-09-19T06:42:49;13.77;68.69
72772;SHT30;60894;42.544;1.516;2023-09-19T06:45:17;13.73;67.30
72772;SHT30;60894;42.544;1.516;2023-09-19T06:47:44;14.07;67.99
72772;SHT30;60894;42.544;1.516;2023-09-19T06:50:11;14.26;67.32
72772;SHT30;60894;42.544;1.516;2023-09-19T06:52:40;14.12;66.41
72772;SHT30;60894;42.544;1.516;2023-09-19T06:55:08;14.26;67.18
72772;SHT30;60894;42.544;1.516;2023-09-19T06:57:38;14.12;66.98
72772;SHT30;60894;42.544;1.516;2023-09-19T07:00:07;13.62;66.82
72772;SHT30;60894;42.544;1.516;2023-09-19T07:02:41;14.02;67.58
72772;SHT30;60894;42.544;1.516;2023-09-19T07:05:08;14.16;66.62
72772;SHT30;60894;42.544;1.516;2023-09-19T07:07:35;14.33;66.50
72772;SHT30;60894;42.544;1.516;2023-09-19T07:10:02;14.27;66.56
72772;SHT30;60894;42.544;1.516;2023-09-19T07:12:32;14.63;65.62
72772;SHT30;60894;42.544;1.516;2023-09-19T07:14:59;14.42;65.17
72772;SHT30;60894;42.544;1.516;2023-09-19T07:17:26;14.27;66.24
72772;SHT30;60894;42.544;1.516;2023-09-19T07:19:54;13.96;66.43
72772;SHT30;60894;42.544;1.516;2023-09-19T07:22:22;13.90;66.74
72772;SHT30;60894;42.544;1.516;2023-09-19T07:24:49;13.48;67.93
72772;SHT30;60894;42.544;1.516;2023-09-19T07:27:16;13.66;67.80
72772;SHT30;60894;42.544;1.516;2023-09-19T07:29:45;13.76;67.28
72772;SHT30;60894;42.544;1.516;2023-09-19T07:32:12;13.67;67.34
72772;SHT30;60894;42.544;1.516;2023-09-19T07:34:39;13.59;67.71
72772;SHT30;60894;42.544;1.516;2023-09-19T07:37:06;13.51;67.89
72772;SHT30;60894;42.544;1.516;2023-09-19T07:39:33;13.45;68.17
72772;SHT30;60894;42.544;1.516;2023-09-19T07:42:00;13.55;68.42
72772;SHT30;60894;42.544;1.516;2023-09-19T07:44:27;13.67;67.89
72772;SHT30;60894;42.544;1.516;2023-09-19T07:46:55;13.86;67.61
72772;SHT30;60894;42.544;1.516;2023-09-19T07:49:22;14.18;66.70
72772;SHT30;60894;42.544;1.516;2023-09-19T07:51:49;14.31;66.03
72772;SHT30;60894;42.544;1.516;2023-09-19T07:54:18;14.63;65.22
72772;SHT30;60894;42.544;1.516;2023-09-19T07:56:47;14.72;64.53
72772;SHT30;60894;42.544;1.516;2023-09-19T07:59:13;14.61;64.96
72772;SHT30;60894;42.544;1.516;2023-09-19T08:01:41;14.58;65.27
72772;SHT30;60894;42.544;1.516;2023-09-19T08:04:11;14.54;65.04
72772;SHT30;60894;42.544;1.516;2023-09-19T08:06:38;14.42;64.85
72772;SHT30;60894;42.544;1.516;2023-09-19T08:09:05;14.47;64.53
72772;SHT30;60894;42.544;1.516;2023-09-19T08:11:35;14.52;64.86
72772;SHT30;60894;42.544;1.516;2023-09-19T08:14:02;14.52;65.41
72772;SHT30;60894;42.544;1.516;2023-09-19T08:16:31;14.54;65.26
72772;SHT30;60894;42.544;1.516;2023-09-19T08:18:58;14.81;64.73
72772;SHT30;60894;42.544;1.516;2023-09-19T08:21:26;15.08;64.07
72772;SHT30;60894;42.544;1.516;2023-09-19T08:23:55;15.23;63.20
72772;SHT30;60894;42.544;1.516;2023-09-19T08:26:22;15.25;62.67
72772;SHT30;60894;42.544;1.516;2023-09-19T08:28:50;15.19;62.51
72772;SHT30;60894;42.544;1.516;2023-09-19T08:31:18;15.30;62.18
72772;SHT30;60894;42.544;1.516;2023-09-19T08:33:46;15.51;62.23
72772;SHT30;60894;42.544;1.516;2023-09-19T08:36:16;15.77;60.80
72772;SHT30;60894;42.544;1.516;2023-09-19T08:38:45;15.78;59.55
72772;SHT30;60894;42.544;1.516;2023-09-19T08:41:12;15.86;59.58
72772;SHT30;60894;42.544;1.516;2023-09-19T08:43:39;16.04;59.89
72772;SHT30;60894;42.544;1.516;2023-09-19T08:46:10;16.21;59.84
72772;SHT30;60894;42.544;1.516;2023-09-19T08:48:40;16.36;58.91
72772;SHT30;60894;42.544;1.516;2023-09-19T08:51:18;16.70;58.95
72772;SHT30;60894;42.544;1.516;2023-09-19T08:53:51;16.97;58.41
72772;SHT30;60894;42.544;1.516;2023-09-19T08:56:18;17.23;57.39
72772;SHT30;60894;42.544;1.516;2023-09-19T08:58:51;17.44;56.66
72772;SHT30;60894;42.544;1.516;2023-09-19T09:01:20;17.58;56.15
72772;SHT30;60894;42.544;1.516;2023-09-19T09:03:51;17.62;55.67
72772;SHT30;60894;42.544;1.516;2023-09-19T09:06:19;17.77;54.76
72772;SHT30;60894;42.544;1.516;2023-09-19T09:08:46;17.98;54.33
72772;SHT30;60894;42.544;1.516;2023-09-19T09:11:16;18.08;53.94
72772;SHT30;60894;42.544;1.516;2023-09-19T09:13:43;18.16;53.47
72772;SHT30;60894;42.544;1.516;2023-09-19T09:16:11;18.17;52.45
72772;SHT30;60894;42.544;1.516;2023-09-19T09:18:39;18.29;50.34
72772;SHT30;60894;42.544;1.516;2023-09-19T09:21:06;18.44;50.18
72772;SHT30;60894;42.544;1.516;2023-09-19T09:23:33;18.39;49.74
72772;SHT30;60894;42.544;1.516;2023-09-19T09:26:00;18.44;49.62
72772;SHT30;60894;42.544;1.516;2023-09-19T09:28:33;18.61;49.37
72772;SHT30;60894;42.544;1.516;2023-09-19T09:31:01;18.74;48.49
72772;SHT30;60894;42.544;1.516;2023-09-19T09:33:33;18.84;47.20
72772;SHT30;60894;42.544;1.516;2023-09-19T09:36:01;18.97;46.90
72772;SHT30;60894;42.544;1.516;2023-09-19T09:38:42;19.01;47.02
72772;SHT30;60894;42.544;1.516;2023-09-19T09:41:09;19.18;46.28
72772;SHT30;60894;42.544;1.516;2023-09-19T09:43:43;19.19;46.13
72772;SHT30;60894;42.544;1.516;2023-09-19T09:46:13;19.32;46.13
72772;SHT30;60894;42.544;1.516;2023-09-19T09:49:02;19.53;45.08
72772;SHT30;60894;42.544;1.516;2023-09-19T09:51:42;19.82;45.24
72772;SHT30;60894;42.544;1.516;2023-09-19T09:54:11;19.90;45.39
72772;SHT30;60894;42.544;1.516;2023-09-19T09:56:52;20.10;45.74
72772;SHT30;60894;42.544;1.516;2023-09-19T09:59:21;20.22;45.12
72772;SHT30;60894;42.544;1.516;2023-09-19T10:01:49;20.20;45.58
72772;SHT30;60894;42.544;1.516;2023-09-19T10:04:27;20.41;45.42
72772;SHT30;60894;42.544;1.516;2023-09-19T10:06:56;20.42;44.78
72772;SHT30;60894;42.544;1.516;2023-09-19T10:09:23;20.45;45.06
72772;SHT30;60894;42.544;1.516;2023-09-19T10:12:05;20.32;45.86
72772;SHT30;60894;42.544;1.516;2023-09-19T10:14:37;20.47;45.41
72772;SHT30;60894;42.544;1.516;2023-09-19T10:17:05;20.38;45.84
72772;SHT30;60894;42.544;1.516;2023-09-19T10:19:37;20.52;44.79
72772;SHT30;60894;42.544;1.516;2023-09-19T10:22:05;20.45;44.91
72772;SHT30;60894;42.544;1.516;2023-09-19T10:24:35;20.61;44.58
72772;SHT30;60894;42.544;1.516;2023-09-19T10:27:06;20.78;44.01
72772;SHT30;60894;42.544;1.516;2023-09-19T10:29:36;20.69;43.00
72772;SHT30;60894;42.544;1.516;2023-09-19T10:32:06;20.85;42.43
72772;SHT30;60894;42.544;1.516;2023-09-19T10:34:35;20.93;42.42
72772;SHT30;60894;42.544;1.516;2023-09-19T10:37:03;20.67;43.64
72772;SHT30;60894;42.544;1.516;2023-09-19T10:39:32;20.79;43.26
72772;SHT30;60894;42.544;1.516;2023-09-19T10:42:03;21.03;42.94
72772;SHT30;60894;42.544;1.516;2023-09-19T10:44:32;21.57;42.84
72772;SHT30;60894;42.544;1.516;2023-09-19T10:47:02;21.71;41.86
72772;SHT30;60894;42.544;1.516;2023-09-19T10:49:31;21.81;41.02
72772;SHT30;60894;42.544;1.516;2023-09-19T10:52:00;21.78;40.76
72772;SHT30;60894;42.544;1.516;2023-09-19T10:54:31;21.53;41.73
72772;SHT30;60894;42.544;1.516;2023-09-19T10:57:02;21.75;41.36
72772;SHT30;60894;42.544;1.516;2023-09-19T10:59:30;21.71;41.16
72772;SHT30;60894;42.544;1.516;2023-09-19T11:02:16;21.64;41.86
72772;SHT30;60894;42.544;1.516;2023-09-19T11:04:44;21.81;41.80
72772;SHT30;60894;42.544;1.516;2023-09-19T11:07:14;22.11;40.81
72772;SHT30;60894;42.544;1.516;2023-09-19T11:09:49;22.02;40.80
72772;SHT30;60894;42.544;1.516;2023-09-19T11:12:48;21.78;40.94
72772;SHT30;60894;42.544;1.516;2023-09-19T11:18:52;22.32;40.10
72772;SHT30;60894;42.544;1.516;2023-09-19T11:21:52;22.36;40.70
72772;SHT30;60894;42.544;1.516;2023-09-19T11:24:28;21.95;41.01
72772;SHT30;60894;42.544;1.516;2023-09-19T11:27:09;22.45;40.45
72772;SHT30;60894;42.544;1.516;2023-09-19T11:29:39;22.52;39.71
72772;SHT30;60894;42.544;1.516;2023-09-19T11:32:07;22.60;39.57
72772;SHT30;60894;42.544;1.516;2023-09-19T11:34:41;22.01;40.18
72772;SHT30;60894;42.544;1.516;2023-09-19T11:40:33;22.66;39.46
72772;SHT30;60894;42.544;1.516;2023-09-19T11:43:33;22.67;39.06
72772;SHT30;60894;42.544;1.516;2023-09-19T11:46:05;23.01;39.51
72772;SHT30;60894;42.544;1.516;2023-09-19T11:48:33;22.97;38.56
72772;SHT30;60894;42.544;1.516;2023-09-19T11:51:23;23.30;38.18
72772;SHT30;60894;42.544;1.516;2023-09-19T11:53:53;23.11;38.38
72772;SHT30;60894;42.544;1.516;2023-09-19T11:56:21;22.83;39.15
72772;SHT30;60894;42.544;1.516;2023-09-19T11:58:50;23.27;37.15
72772;SHT30;60894;42.544;1.516;2023-09-19T12:01:22;23.25;36.92
72772;SHT30;60894;42.544;1.516;2023-09-19T12:03:53;23.21;37.35
72772;SHT30;60894;42.544;1.516;2023-09-19T12:06:24;23.01;37.60
72772;SHT30;60894;42.544;1.516;2023-09-19T12:08:51;22.94;38.31
72772;SHT30;60894;42.544;1.516;2023-09-19T12:11:20;23.47;37.73
72772;SHT30;60894;42.544;1.516;2023-09-19T12:13:49;23.68;36.72
72772;SHT30;60894;42.544;1.516;2023-09-19T12:16:18;23.72;36.70
72772;SHT30;60894;42.544;1.516;2023-09-19T12:18:48;23.40;37.46
72772;SHT30;60894;42.544;1.516;2023-09-19T12:21:26;23.58;37.54
72772;SHT30;60894;42.544;1.516;2023-09-19T12:24:07;23.93;36.88
72772;SHT30;60894;42.544;1.516;2023-09-19T12:26:43;23.95;36.75
72772;SHT30;60894;42.544;1.516;2023-09-19T12:29:15;24.26;36.11
72772;SHT30;60894;42.544;1.516;2023-09-19T12:31:50;24.54;35.67
72772;SHT30;60894;42.544;1.516;2023-09-19T12:34:20;24.29;35.32
72772;SHT30;60894;42.544;1.516;2023-09-19T12:36:49;24.14;35.66
72772;SHT30;60894;42.544;1.516;2023-09-19T12:39:31;23.89;35.92
72772;SHT30;60894;42.544;1.516;2023-09-19T12:41:58;23.83;36.81
72772;SHT30;60894;42.544;1.516;2023-09-19T12:44:29;23.95;36.02
72772;SHT30;60894;42.544;1.516;2023-09-19T12:46:56;23.88;36.03
72772;SHT30;60894;42.544;1.516;2023-09-19T12:49:24;24.12;36.22
72772;SHT30;60894;42.544;1.516;2023-09-19T12:51:55;24.24;35.22
72772;SHT30;60894;42.544;1.516;2023-09-19T12:54:24;24.47;35.15
72772;SHT30;60894;42.544;1.516;2023-09-19T12:56:54;24.23;35.22
72772;SHT30;60894;42.544;1.516;2023-09-19T12:59:29;23.89;35.79
72772;SHT30;60894;42.544;1.516;2023-09-19T13:02:04;23.90;35.48
72772;SHT30;60894;42.544;1.516;2023-09-19T13:04:33;23.92;35.25
72772;SHT30;60894;42.544;1.516;2023-09-19T13:07:07;24.10;35.26
72772;SHT30;60894;42.544;1.516;2023-09-19T13:09:35;24.14;34.95
72772;SHT30;60894;42.544;1.516;2023-09-19T13:12:04;24.08;34.86
72772;SHT30;60894;42.544;1.516;2023-09-19T13:14:33;24.12;35.59
72772;SHT30;60894;42.544;1.516;2023-09-19T13:17:07;24.23;34.64
72772;SHT30;60894;42.544;1.516;2023-09-19T13:19:42;24.02;34.46
72772;SHT30;60894;42.544;1.516;2023-09-19T13:22:37;24.47;34.07
72772;SHT30;60894;42.544;1.516;2023-09-19T13:25:09;24.44;33.67
72772;SHT30;60894;42.544;1.516;2023-09-19T13:27:40;24.68;33.43
72772;SHT30;60894;42.544;1.516;2023-09-19T13:30:08;25.35;32.33
72772;SHT30;60894;42.544;1.516;2023-09-19T13:32:36;24.68;32.75
72772;SHT30;60894;42.544;1.516;2023-09-19T13:35:05;24.09;33.28
72772;SHT30;60894;42.544;1.516;2023-09-19T13:37:34;24.64;32.48
72772;SHT30;60894;42.544;1.516;2023-09-19T13:40:09;24.09;33.45
72772;SHT30;60894;42.544;1.516;2023-09-19T13:42:36;23.41;33.75
72772;SHT30;60894;42.544;1.516;2023-09-19T13:45:04;23.14;34.22
72772;SHT30;60894;42.544;1.516;2023-09-19T13:47:32;23.21;34.93
72772;SHT30;60894;42.544;1.516;2023-09-19T13:49:59;23.30;33.78
72772;SHT30;60894;42.544;1.516;2023-09-19T13:52:26;23.73;32.92
72772;SHT30;60894;42.544;1.516;2023-09-19T13:54:56;23.65;33.01
72772;SHT30;60894;42.544;1.516;2023-09-19T13:57:25;23.25;33.39
72772;SHT30;60894;42.544;1.516;2023-09-19T13:59:52;22.86;34.16
72772;SHT30;60894;42.544;1.516;2023-09-19T14:02:20;22.66;34.76
72772;SHT30;60894;42.544;1.516;2023-09-19T14:04:48;22.84;34.46
72772;SHT30;60894;42.544;1.516;2023-09-19T14:07:15;22.57;34.59
72772;SHT30;60894;42.544;1.516;2023-09-19T14:09:43;22.29;35.16
72772;SHT30;60894;42.544;1.516;2023-09-19T14:12:11;22.55;34.60
72772;SHT30;60894;42.544;1.516;2023-09-19T14:14:39;22.46;34.68
72772;SHT30;60894;42.544;1.516;2023-09-19T14:17:06;22.53;34.70
72772;SHT30;60894;42.544;1.516;2023-09-19T14:19:34;22.51;35.04
72772;SHT30;60894;42.544;1.516;2023-09-19T14:22:02;22.41;35.00
72772;SHT30;60894;42.544;1.516;2023-09-19T14:24:33;22.51;35.05
72772;SHT30;60894;42.544;1.516;2023-09-19T14:27:00;22.63;34.49
72772;SHT30;60894;42.544;1.516;2023-09-19T14:29:29;22.39;35.08
72772;SHT30;60894;42.544;1.516;2023-09-19T14:31:58;22.23;35.31
72772;SHT30;60894;42.544;1.516;2023-09-19T14:34:25;22.04;35.24
72772;SHT30;60894;42.544;1.516;2023-09-19T14:36:52;21.95;35.75
72772;SHT30;60894;42.544;1.516;2023-09-19T14:39:20;21.82;36.24
72772;SHT30;60894;42.544;1.516;2023-09-19T14:41:46;21.84;36.06
72772;SHT30;60894;42.544;1.516;2023-09-19T14:44:13;21.78;35.71
72772;SHT30;60894;42.544;1.516;2023-09-19T14:46:41;21.91;36.06
72772;SHT30;60894;42.544;1.516;2023-09-19T14:49:10;22.09;35.88
72772;SHT30;60894;42.544;1.516;2023-09-19T14:51:37;22.31;35.17
72772;SHT30;60894;42.544;1.516;2023-09-19T14:54:05;22.41;34.73
72772;SHT30;60894;42.544;1.516;2023-09-19T14:56:33;22.62;34.57
72772;SHT30;60894;42.544;1.516;2023-09-19T14:59:00;22.52;35.36
72772;SHT30;60894;42.544;1.516;2023-09-19T15:01:28;22.53;34.76
72772;SHT30;60894;42.544;1.516;2023-09-19T15:03:55;22.69;34.60
72772;SHT30;60894;42.544;1.516;2023-09-19T15:06:23;22.70;34.40
72772;SHT30;60894;42.544;1.516;2023-09-19T15:08:51;22.72;34.29
72772;SHT30;60894;42.544;1.516;2023-09-19T15:11:19;22.52;35.11
72772;SHT30;60894;42.544;1.516;2023-09-19T15:13:47;22.51;34.74
72772;SHT30;60894;42.544;1.516;2023-09-19T15:16:14;22.22;34.89
72772;SHT30;60894;42.544;1.516;2023-09-19T15:18:43;22.19;35.05
72772;SHT30;60894;42.544;1.516;2023-09-19T15:21:13;22.01;34.90
72772;SHT30;60894;42.544;1.516;2023-09-19T15:23:42;22.21;34.79
72772;SHT30;60894;42.544;1.516;2023-09-19T15:26:11;22.23;35.19
72772;SHT30;60894;42.544;1.516;2023-09-19T15:28:39;22.15;35.16
72772;SHT30;60894;42.544;1.516;2023-09-19T15:31:07;22.12;35.57
72772;SHT30;60894;42.544;1.516;2023-09-19T15:33:34;22.09;35.03
72772;SHT30;60894;42.544;1.516;2023-09-19T15:36:03;22.51;35.56
72772;SHT30;60894;42.544;1.516;2023-09-19T15:38:30;22.18;35.04
72772;SHT30;60894;42.544;1.516;2023-09-19T15:40:59;22.31;34.92
72772;SHT30;60894;42.544;1.516;2023-09-19T15:43:26;22.99;34.29
72772;SHT30;60894;42.544;1.516;2023-09-19T15:45:53;23.14;34.25
72772;SHT30;60894;42.544;1.516;2023-09-19T15:48:20;22.82;34.40
72772;SHT30;60894;42.544;1.516;2023-09-19T15:50:47;23.06;34.63
72772;SHT30;60894;42.544;1.516;2023-09-19T15:53:14;23.35;34.45